Time;durP1;ratioP1;P1;durP2;ratioP2;P2;SDS_P1;SDS_P2;PMS_P1;PMS_P2;Temp;Humidity;BMP_temperature;BMP_pressure;BME280_temperature;BME280_humidity;BME280_pressure;Samples;Min_cycle;Max_cycle;Signal;HPM_P1;HPM_P2
2023/04/10 00:00:55;;;;;;;7.22;4.78;;;;;;;12.27;59.04;100065.84;5033282;28;20037;-65
2023/04/10 00:03:22;;;;;;;7.82;4.88;;;;;;;12.31;58.66;100063.69;5033413;28;20038;-65
2023/04/10 00:05:48;;;;;;;14.05;7.38;;;;;;;12.35;58.11;100065.03;5031114;28;20117;-67
2023/04/10 00:08:13;;;;;;;7.53;5.32;;;;;;;12.39;58.02;100051.25;5033207;28;20340;-67
2023/04/10 00:10:39;;;;;;;8.77;4.75;;;;;;;12.41;56.30;100056.41;5031749;28;20221;-67
2023/04/10 00:13:04;;;;;;;8.75;6.18;;;;;;;12.41;56.69;100051.91;5031857;28;20037;-64
2023/04/10 00:15:30;;;;;;;8.60;5.70;;;;;;;12.45;56.04;100047.09;5031614;28;20045;-67
2023/04/10 00:17:55;;;;;;;6.57;5.30;;;;;;;12.42;55.87;100034.16;5032140;28;20050;-64
2023/04/10 00:20:21;;;;;;;8.48;5.88;;;;;;;12.46;55.90;100043.44;5033785;28;20079;-65
2023/04/10 00:22:47;;;;;;;14.35;6.55;;;;;;;12.47;55.61;100037.13;5032316;28;20080;-67
2023/04/10 00:25:13;;;;;;;7.40;5.28;;;;;;;12.46;54.91;100032.81;5032863;28;20227;-67
2023/04/10 00:27:38;;;;;;;8.70;5.88;;;;;;;12.36;55.93;100033.00;5031953;28;20047;-67
2023/04/10 00:30:05;;;;;;;9.15;5.95;;;;;;;12.28;56.36;100032.16;5030197;28;20332;-67
2023/04/10 00:32:30;;;;;;;8.63;5.80;;;;;;;12.26;57.47;100035.00;5032395;28;20037;-67
2023/04/10 00:34:55;;;;;;;9.00;5.68;;;;;;;12.30;56.78;100031.00;5032987;28;20079;-64
2023/04/10 00:37:21;;;;;;;8.07;5.78;;;;;;;12.28;57.04;100018.88;5032880;28;20104;-67
2023/04/10 00:39:46;;;;;;;9.75;5.85;;;;;;;12.26;56.52;100016.41;5033106;28;20042;-65
2023/04/10 00:42:12;;;;;;;8.50;5.55;;;;;;;12.19;57.06;100009.28;5033059;28;20037;-68
2023/04/10 00:44:37;;;;;;;10.48;5.75;;;;;;;12.22;56.62;100011.59;5033405;28;20048;-64
2023/04/10 00:47:04;;;;;;;7.55;5.18;;;;;;;12.18;56.28;100004.94;5029945;28;20037;-64
2023/04/10 00:49:30;;;;;;;8.18;6.07;;;;;;;12.11;56.64;99999.47;5033344;28;20230;-65
2023/04/10 00:51:56;;;;;;;10.18;6.28;;;;;;;12.02;56.42;99989.84;5032120;28;20205;-64
2023/04/10 00:54:22;;;;;;;9.27;5.78;;;;;;;12.07;56.89;99993.66;5030997;28;20048;-64
2023/04/10 00:56:49;;;;;;;8.77;6.05;;;;;;;12.10;56.79;99989.84;5032437;28;20109;-64
2023/04/10 00:59:15;;;;;;;7.10;4.88;;;;;;;12.03;56.37;99991.50;5032253;28;20240;-67
2023/04/10 01:01:40;;;;;;;10.38;6.28;;;;;;;11.88;56.81;99987.84;5032107;28;20033;-67
2023/04/10 01:04:07;;;;;;;9.75;6.22;;;;;;;11.65;57.96;99988.44;5031907;28;20347;-65
2023/04/10 01:06:56;;;;;;;9.70;6.00;;;;;;;11.71;57.35;99986.97;5032913;28;20025;-64
2023/04/10 01:09:27;;;;;;;8.77;6.00;;;;;;;11.69;57.43;99984.47;5031772;28;20041;-64
2023/04/10 01:11:57;;;;;;;11.23;6.38;;;;;;;11.77;56.77;99986.31;5033108;28;20200;-65
2023/04/10 01:14:32;;;;;;;10.38;5.75;;;;;;;11.77;56.93;99986.31;5030044;28;20037;-64
2023/04/10 01:17:06;;;;;;;20.92;10.23;;;;;;;11.70;56.82;99988.78;5030767;28;20041;-64
2023/04/10 01:19:59;;;;;;;75.78;29.55;;;;;;;11.40;57.41;99992.84;5032643;28;20151;-64
2023/04/10 01:22:33;;;;;;;24.50;11.65;;;;;;;11.10;58.68;99996.03;5031832;28;20030;-64
2023/04/10 01:25:25;;;;;;;15.85;8.63;;;;;;;10.16;63.21;99996.72;5031702;28;20037;-65
2023/04/10 01:28:09;;;;;;;10.88;6.63;;;;;;;10.19;63.41;99995.59;5032244;28;20033;-67
2023/04/10 01:30:36;;;;;;;9.40;6.13;;;;;;;10.29;62.96;99991.06;5029796;28;20038;-68
2023/04/10 01:33:04;;;;;;;11.88;6.88;;;;;;;10.24;63.17;99999.47;5029770;28;20353;-64
2023/04/10 01:35:32;;;;;;;12.57;6.50;;;;;;;10.32;63.28;99998.72;5031191;28;20367;-68
2023/04/10 01:38:01;;;;;;;11.43;7.40;;;;;;;10.40;62.43;99997.94;5031730;28;20228;-67
2023/04/10 01:40:28;;;;;;;14.68;8.32;;;;;;;10.43;62.38;100001.13;5030503;28;20067;-64
2023/04/10 01:42:56;;;;;;;22.17;11.90;;;;;;;10.21;62.85;100001.59;5032141;28;20112;-67
2023/04/10 01:45:26;;;;;;;24.33;10.60;;;;;;;10.10;63.43;100000.00;5030338;28;20330;-65
2023/04/10 01:47:53;;;;;;;23.50;11.38;;;;;;;10.22;63.81;99995.31;5031883;28;20065;-67
2023/04/10 01:50:22;;;;;;;12.00;7.00;;;;;;;10.17;63.38;100000.22;5031974;28;20092;-64
2023/04/10 01:52:50;;;;;;;21.95;10.45;;;;;;;10.07;64.40;100004.75;5031593;28;20025;-64
2023/04/10 01:55:16;;;;;;;11.18;6.68;;;;;;;9.84;65.32;100002.56;5033446;28;20041;-67
2023/04/10 01:57:42;;;;;;;12.73;7.03;;;;;;;9.58;66.63;100012.22;5030224;28;20063;-64
2023/04/10 02:00:08;;;;;;;15.27;8.77;;;;;;;9.50;67.67;100005.03;5033016;28;20342;-67
2023/04/10 02:02:34;;;;;;;11.05;6.95;;;;;;;9.52;67.76;100003.06;5029731;28;20038;-67
2023/04/10 02:05:00;;;;;;;14.43;7.60;;;;;;;9.42;68.21;100004.94;5029255;28;20040;-64
2023/04/10 02:07:28;;;;;;;11.77;6.82;;;;;;;9.78;66.41;99999.69;5030320;28;20328;-67
2023/04/10 02:10:28;;;;;;;11.02;6.47;;;;;;;9.74;66.60;99993.06;5030081;28;20047;-67
2023/04/10 02:13:04;;;;;;;20.38;11.20;;;;;;;9.79;66.02;99988.13;5031513;28;20108;-65
2023/04/10 02:15:31;;;;;;;12.05;6.82;;;;;;;9.95;64.69;99996.22;5030186;28;20049;-67
2023/04/10 02:17:59;;;;;;;12.07;6.78;;;;;;;10.18;64.31;99988.63;5031105;28;20243;-67
2023/04/10 02:20:25;;;;;;;11.43;6.90;;;;;;;10.40;63.58;99993.50;5031407;28;20041;-64
2023/04/10 02:22:52;;;;;;;12.50;7.97;;;;;;;10.51;63.58;99990.59;5030278;28;20048;-64
2023/04/10 02:25:18;;;;;;;23.98;11.20;;;;;;;10.56;63.01;100000.72;5031279;28;20037;-64
2023/04/10 02:27:43;;;;;;;19.75;9.63;;;;;;;10.63;63.10;99992.97;5029820;28;20045;-65
2023/04/10 02:30:09;;;;;;;11.30;6.65;;;;;;;10.66;63.26;99993.50;5030649;28;20048;-65
2023/04/10 02:32:35;;;;;;;15.77;8.88;;;;;;;10.64;63.60;99989.34;5029772;28;20041;-65
2023/04/10 02:35:01;;;;;;;11.50;6.75;;;;;;;10.64;63.47;99992.00;5031955;28;20045;-64
2023/04/10 02:37:27;;;;;;;30.02;15.02;;;;;;;10.70;63.16;99981.59;5029956;28;20045;-67
2023/04/10 02:39:56;;;;;;;25.00;12.25;;;;;;;10.78;63.23;99981.66;5030262;28;20037;-67
2023/04/10 02:42:21;;;;;;;17.63;9.48;;;;;;;10.84;63.51;99975.72;5029893;28;20021;-67
2023/04/10 02:44:47;;;;;;;15.00;9.50;;;;;;;10.85;62.72;99976.56;5030724;28;20045;-65
2023/04/10 02:47:14;;;;;;;15.15;9.07;;;;;;;10.93;63.11;99975.75;5030570;28;20037;-64
2023/04/10 02:49:40;;;;;;;20.52;10.55;;;;;;;10.99;62.54;99975.97;5030345;28;20052;-67
2023/04/10 02:52:05;;;;;;;16.73;9.63;;;;;;;11.08;62.74;99969.69;5031430;28;20034;-65
2023/04/10 02:54:31;;;;;;;13.90;8.30;;;;;;;11.04;62.65;99971.00;5030008;28;20339;-67
2023/04/10 02:56:57;;;;;;;13.35;7.90;;;;;;;11.03;62.06;99971.16;5032472;28;20044;-67
2023/04/10 02:59:23;;;;;;;14.13;8.43;;;;;;;10.88;62.84;99963.00;5030600;28;20055;-67
2023/04/10 03:01:49;;;;;;;10.80;7.43;;;;;;;10.96;62.67;99963.03;5020580;28;20243;-65
2023/04/10 03:04:15;;;;;;;12.50;7.35;;;;;;;10.79;63.76;99967.41;5016843;28;20305;-65
2023/04/10 03:06:40;;;;;;;11.38;7.53;;;;;;;10.83;63.76;99963.47;5016329;28;20037;-65
2023/04/10 03:09:06;;;;;;;14.65;7.40;;;;;;;10.87;63.54;99967.47;5019015;28;20046;-64
2023/04/10 03:11:31;;;;;;;13.25;7.03;;;;;;;10.96;63.80;99967.50;5017588;28;20034;-67
2023/04/10 03:13:57;;;;;;;11.32;7.38;;;;;;;10.97;64.29;99963.84;5017948;28;20038;-67
2023/04/10 03:16:23;;;;;;;12.85;7.28;;;;;;;10.94;63.55;99966.81;5017287;28;20052;-67
2023/04/10 03:18:48;;;;;;;12.77;7.15;;;;;;;10.91;63.85;99967.13;5017522;28;20042;-65
2023/04/10 03:21:14;;;;;;;12.15;7.05;;;;;;;10.90;64.12;99976.09;5015855;28;20030;-68
2023/04/10 03:23:39;;;;;;;11.98;7.50;;;;;;;10.81;64.83;99980.50;5017420;28;20087;-64
2023/04/10 03:26:05;;;;;;;11.27;6.53;;;;;;;10.64;65.14;99970.81;5017235;28;20041;-64
2023/04/10 03:28:32;;;;;;;13.65;8.07;;;;;;;10.54;65.56;99973.56;5017325;28;20305;-67
2023/04/10 03:30:57;;;;;;;12.40;7.53;;;;;;;10.50;65.72;99974.88;5016478;28;20224;-64
2023/04/10 03:33:23;;;;;;;16.15;8.05;;;;;;;10.42;65.84;99966.88;5015318;28;20038;-67
2023/04/10 03:35:49;;;;;;;14.60;8.27;;;;;;;10.39;66.13;99965.34;5017102;28;20135;-65
2023/04/10 03:38:15;;;;;;;14.82;7.65;;;;;;;10.37;66.32;99964.66;5016984;28;20046;-66
2023/04/10 03:40:40;;;;;;;15.07;7.55;;;;;;;10.28;66.73;99972.69;5019047;28;20040;-64
2023/04/10 03:43:06;;;;;;;11.25;7.20;;;;;;;10.24;66.72;99973.00;5020573;28;20095;-64
2023/04/10 03:45:31;;;;;;;12.07;7.82;;;;;;;10.28;67.02;99972.69;5023950;28;20658;-66
2023/04/10 03:47:58;;;;;;;13.82;7.72;;;;;;;10.25;67.36;99971.19;5022606;28;20335;-64
2023/04/10 03:50:23;;;;;;;14.93;8.13;;;;;;;10.20;68.22;99970.81;5019868;28;20026;-65
2023/04/10 03:52:50;;;;;;;14.10;8.82;;;;;;;10.16;68.46;99975.56;5022130;28;20044;-64
2023/04/10 03:55:18;;;;;;;20.45;9.75;;;;;;;10.17;68.02;99981.69;5018855;28;20056;-67
2023/04/10 03:57:47;;;;;;;22.33;9.85;;;;;;;10.21;67.49;99977.78;5022459;28;21626;-67
2023/04/10 04:00:14;;;;;;;14.55;7.90;;;;;;;10.12;67.93;99973.38;5019190;28;20041;-64
2023/04/10 04:02:40;;;;;;;15.68;8.50;;;;;;;9.95;68.81;99971.59;5020115;28;20069;-64
2023/04/10 04:05:06;;;;;;;12.43;7.78;;;;;;;9.94;69.05;99983.97;5019773;28;20346;-64
2023/04/10 04:07:31;;;;;;;15.55;8.43;;;;;;;9.70;69.40;99999.63;5019443;28;20271;-67
2023/04/10 04:09:57;;;;;;;12.45;7.65;;;;;;;9.71;69.98;99994.19;5019499;28;20041;-67
2023/04/10 04:12:23;;;;;;;12.63;7.90;;;;;;;9.83;69.59;99994.78;5019556;28;20441;-64
2023/04/10 04:14:48;;;;;;;12.98;7.60;;;;;;;9.85;69.15;99991.00;5019582;28;20343;-65
2023/04/10 04:17:14;;;;;;;12.98;8.02;;;;;;;9.75;69.59;99984.13;5018550;28;20061;-65
2023/04/10 04:19:39;;;;;;;13.13;6.75;;;;;;;9.64;70.14;99987.84;5020529;28;20038;-67
2023/04/10 04:22:05;;;;;;;19.48;9.25;;;;;;;9.66;70.10;99982.41;5019361;28;20057;-67
2023/04/10 04:24:30;;;;;;;22.52;11.50;;;;;;;9.72;70.12;99979.16;5018369;28;20054;-65
2023/04/10 04:26:56;;;;;;;16.48;9.35;;;;;;;9.84;69.64;99980.59;5019090;28;20236;-67
2023/04/10 04:29:21;;;;;;;13.57;8.75;;;;;;;9.96;68.86;99979.38;5020482;28;20363;-65
2023/04/10 04:31:47;;;;;;;13.77;7.97;;;;;;;10.06;67.86;99971.34;5020287;28;20091;-67
2023/04/10 04:34:12;;;;;;;14.27;7.68;;;;;;;10.19;67.84;99987.66;5019522;28;20240;-67
2023/04/10 04:36:38;;;;;;;14.57;8.65;;;;;;;10.14;68.19;99984.63;5019822;28;20215;-67
2023/04/10 04:39:04;;;;;;;14.48;7.70;;;;;;;9.98;68.67;99977.41;5019979;28;20041;-67
2023/04/10 04:41:31;;;;;;;15.00;9.02;;;;;;;10.00;68.76;99987.81;5021445;28;20029;-68
2023/04/10 04:43:57;;;;;;;15.98;8.77;;;;;;;10.11;68.75;99983.13;5020698;28;20042;-65
2023/04/10 04:46:22;;;;;;;14.98;8.20;;;;;;;10.13;68.03;99986.44;5020758;28;20033;-64
2023/04/10 04:48:48;;;;;;;16.60;8.48;;;;;;;10.15;68.94;99992.44;5019568;28;20345;-64
2023/04/10 04:51:13;;;;;;;13.95;8.70;;;;;;;10.08;69.23;99988.72;5017906;28;20033;-67
2023/04/10 04:53:39;;;;;;;20.25;9.38;;;;;;;9.98;69.65;99987.97;5019779;28;20038;-65
2023/04/10 04:56:05;;;;;;;17.50;10.23;;;;;;;9.89;70.69;99988.91;5020041;28;20042;-64
2023/04/10 04:58:30;;;;;;;22.10;10.95;;;;;;;9.88;70.92;99984.59;5018698;28;20048;-64
2023/04/10 05:00:55;;;;;;;19.02;10.63;;;;;;;9.99;71.25;99986.16;5019202;28;20327;-65
2023/04/10 05:03:21;;;;;;;19.50;10.38;;;;;;;10.02;71.68;99984.03;5020089;28;20037;-67
2023/04/10 05:05:47;;;;;;;19.65;10.13;;;;;;;9.98;72.21;99971.28;5016741;28;20042;-66
2023/04/10 05:08:12;;;;;;;17.70;10.00;;;;;;;10.10;72.64;99980.63;5017834;28;20034;-67
2023/04/10 05:10:37;;;;;;;19.45;10.23;;;;;;;10.15;72.31;99987.13;5019579;28;20048;-66
2023/04/10 05:13:03;;;;;;;18.08;10.10;;;;;;;10.21;72.51;99983.91;5019469;28;20274;-65
2023/04/10 05:15:28;;;;;;;17.85;9.73;;;;;;;10.37;72.73;99998.25;5018402;28;20256;-65
2023/04/10 05:17:54;;;;;;;15.10;9.02;;;;;;;10.12;73.76;99989.25;5018333;28;20323;-65
2023/04/10 05:20:20;;;;;;;17.15;9.20;;;;;;;10.40;72.79;99998.78;5018005;28;20030;-67
2023/04/10 05:22:46;;;;;;;14.88;8.93;;;;;;;10.55;71.72;100009.66;5018163;28;20030;-64
2023/04/10 05:25:12;;;;;;;16.95;10.10;;;;;;;10.73;72.15;100005.13;5019950;28;20099;-64
2023/04/10 05:27:37;;;;;;;14.93;9.40;;;;;;;10.80;71.34;100002.69;5019205;28;20038;-65
2023/04/10 05:30:03;;;;;;;17.85;9.73;;;;;;;10.84;70.42;100007.50;5019000;28;20439;-65
2023/04/10 05:32:28;;;;;;;13.93;9.23;;;;;;;10.81;70.04;100012.28;5019607;28;20328;-67
2023/04/10 05:34:54;;;;;;;17.13;10.15;;;;;;;10.93;69.68;100010.19;5018324;28;20048;-64
2023/04/10 05:37:19;;;;;;;18.15;10.02;;;;;;;11.03;68.53;100022.34;5018013;28;20036;-65
2023/04/10 05:39:45;;;;;;;15.88;10.25;;;;;;;11.09;68.88;100021.72;5019023;28;20046;-67
2023/04/10 05:42:10;;;;;;;16.20;9.48;;;;;;;11.35;69.16;100020.81;5019842;28;20045;-65
2023/04/10 05:44:36;;;;;;;14.32;9.23;;;;;;;11.36;67.94;100011.88;5019742;28;20059;-67
2023/04/10 05:47:01;;;;;;;14.10;9.48;;;;;;;11.44;67.05;100007.47;5018840;28;20039;-67
2023/04/10 05:49:27;;;;;;;15.13;9.48;;;;;;;11.68;66.34;100025.25;5017415;28;20092;-64
2023/04/10 05:51:52;;;;;;;15.85;9.48;;;;;;;11.88;65.84;100017.03;5016854;28;20042;-65
2023/04/10 05:54:18;;;;;;;16.10;10.10;;;;;;;11.93;66.24;100022.69;5018274;28;20054;-67
2023/04/10 05:56:44;;;;;;;15.70;9.20;;;;;;;12.01;65.82;100012.91;5018059;28;20042;-67
2023/04/10 05:59:11;;;;;;;13.35;9.38;;;;;;;12.09;66.04;100006.78;5018058;28;20559;-67
2023/04/10 06:01:36;;;;;;;16.60;9.57;;;;;;;12.13;65.44;100008.94;5017936;28;20034;-67
2023/04/10 06:04:02;;;;;;;15.93;8.77;;;;;;;12.15;65.43;100004.28;5018161;28;20116;-67
2023/04/10 06:06:28;;;;;;;13.88;8.80;;;;;;;12.19;66.06;100001.31;5017561;28;20030;-67
2023/04/10 06:08:54;;;;;;;13.75;9.57;;;;;;;12.20;63.76;100006.44;5018051;28;20079;-64
2023/04/10 06:11:20;;;;;;;15.13;9.57;;;;;;;12.19;65.36;100009.28;5017773;28;20037;-64
2023/04/10 06:13:46;;;;;;;15.57;9.60;;;;;;;12.35;64.55;100011.91;5016915;28;20044;-65
2023/04/10 06:16:13;;;;;;;13.45;9.18;;;;;;;12.55;62.97;100007.13;5017065;28;20037;-65
2023/04/10 06:18:39;;;;;;;15.13;9.00;;;;;;;12.71;61.54;100010.56;5017434;28;20495;-65
2023/04/10 06:21:05;;;;;;;14.35;8.85;;;;;;;12.97;61.16;100004.19;5016805;28;20064;-64
2023/04/10 06:23:30;;;;;;;19.65;9.75;;;;;;;13.29;60.82;100005.94;5016371;28;20056;-68
2023/04/10 06:25:56;;;;;;;16.15;9.35;;;;;;;13.41;58.73;100004.53;5017168;28;20365;-68
2023/04/10 06:28:21;;;;;;;20.15;10.57;;;;;;;13.37;57.83;100003.22;5017627;28;20339;-67
2023/04/10 06:30:46;;;;;;;13.02;9.45;;;;;;;13.29;58.33;100005.94;5016958;28;20037;-65
2023/04/10 06:33:12;;;;;;;15.82;9.30;;;;;;;13.42;57.10;100001.72;5017584;28;20044;-67
2023/04/10 06:35:37;;;;;;;14.02;7.93;;;;;;;13.59;56.92;100007.81;5017093;28;20255;-68
2023/04/10 06:38:03;;;;;;;13.80;8.02;;;;;;;13.79;56.09;99986.06;5019356;28;20041;-68
2023/04/10 06:40:29;;;;;;;11.27;7.40;;;;;;;14.32;54.55;100004.63;5016325;28;20030;-69
2023/04/10 06:42:55;;;;;;;9.13;6.78;;;;;;;14.63;53.33;100009.06;5017863;28;20045;-64
2023/04/10 06:45:21;;;;;;;9.13;6.68;;;;;;;14.91;52.59;99999.41;5017421;28;20028;-65
2023/04/10 06:47:46;;;;;;;14.13;7.38;;;;;;;15.13;51.68;100005.66;5017591;28;20034;-67
2023/04/10 06:50:12;;;;;;;9.40;6.25;;;;;;;15.29;50.68;100005.47;5016834;28;20534;-65
2023/04/10 06:52:37;;;;;;;6.82;4.93;;;;;;;15.57;48.85;100010.09;5025565;28;20345;-68
2023/04/10 06:55:03;;;;;;;9.25;6.45;;;;;;;15.90;48.60;100006.00;5030595;28;20045;-67
2023/04/10 06:57:29;;;;;;;6.40;4.68;;;;;;;16.17;44.82;100000.91;5030150;28;20772;-66
2023/04/10 06:59:55;;;;;;;5.88;4.78;;;;;;;16.24;42.82;100004.47;5027121;28;20037;-65
2023/04/10 07:02:20;;;;;;;6.45;4.63;;;;;;;16.26;43.06;100002.44;5030025;28;20247;-65
2023/04/10 07:04:45;;;;;;;6.53;4.47;;;;;;;16.02;43.18;100006.34;5028073;28;20248;-67
2023/04/10 07:07:12;;;;;;;7.28;5.07;;;;;;;15.67;43.52;100010.69;5029452;28;20312;-67
2023/04/10 07:09:40;;;;;;;4.80;4.20;;;;;;;15.58;44.66;100007.28;5029857;28;20108;-67
2023/04/10 07:12:06;;;;;;;6.45;4.90;;;;;;;15.64;43.70;100003.88;5030559;28;20061;-65
2023/04/10 07:14:33;;;;;;;5.47;4.70;;;;;;;15.72;43.16;100018.13;5029714;28;20052;-68
2023/04/10 07:16:59;;;;;;;7.53;5.22;;;;;;;15.66;43.26;100016.22;5033600;28;20040;-68
2023/04/10 07:19:25;;;;;;;6.60;5.35;;;;;;;15.60;43.86;100013.28;5032157;28;20332;-65
2023/04/10 07:21:50;;;;;;;7.90;4.90;;;;;;;15.61;43.29;100004.28;5034183;28;20025;-67
2023/04/10 07:24:16;;;;;;;5.80;4.82;;;;;;;15.52;42.01;100012.50;5032371;28;20041;-65
2023/04/10 07:26:43;;;;;;;8.85;4.88;;;;;;;15.34;43.31;100015.56;5034592;28;20041;-68
2023/04/10 07:29:09;;;;;;;6.25;4.18;;;;;;;15.19;42.18;100007.59;5032877;28;20375;-65
2023/04/10 07:31:34;;;;;;;6.18;4.60;;;;;;;15.27;42.50;100018.16;5035418;28;20037;-68
2023/04/10 07:34:01;;;;;;;5.38;4.43;;;;;;;15.27;42.80;100012.00;5033941;28;20271;-65
2023/04/10 07:36:26;;;;;;;5.70;4.25;;;;;;;15.19;43.52;100009.44;5034477;28;20033;-65
2023/04/10 07:38:52;;;;;;;6.20;4.43;;;;;;;15.48;43.45;100001.38;5032255;28;20291;-65
2023/04/10 07:41:17;;;;;;;5.82;4.38;;;;;;;16.00;43.00;100000.34;5035613;28;20037;-65
2023/04/10 07:43:43;;;;;;;5.55;4.40;;;;;;;16.46;41.85;99998.09;5033214;28;20304;-65
2023/04/10 07:46:08;;;;;;;3.80;3.15;;;;;;;16.51;39.50;99997.50;5030464;28;20037;-64
2023/04/10 07:48:34;;;;;;;4.55;3.75;;;;;;;16.45;39.26;99995.59;5033883;28;20041;-65
2023/04/10 07:50:59;;;;;;;4.90;3.83;;;;;;;16.61;39.08;99990.78;5033333;28;20039;-68
2023/04/10 07:53:26;;;;;;;4.65;3.67;;;;;;;16.85;38.84;99986.91;5034110;28;20041;-67
2023/04/10 07:55:52;;;;;;;7.00;3.65;;;;;;;17.17;39.14;99992.63;5032966;28;20041;-64
2023/04/10 07:58:17;;;;;;;4.57;4.03;;;;;;;17.47;38.49;99983.28;5034549;28;20061;-65
2023/04/10 08:00:43;;;;;;;4.53;3.90;;;;;;;17.57;37.82;99980.22;5032498;28;20029;-68
2023/04/10 08:03:11;;;;;;;4.40;3.70;;;;;;;17.76;37.70;99976.81;5033248;28;20044;-65
2023/04/10 08:05:37;;;;;;;3.45;3.15;;;;;;;17.81;37.42;99974.34;5030581;28;20052;-68
2023/04/10 08:08:02;;;;;;;3.42;3.08;;;;;;;17.76;36.55;99976.00;5032739;28;20033;-68
2023/04/10 08:10:27;;;;;;;4.63;3.00;;;;;;;16.54;40.46;99981.06;5034166;28;20038;-65
2023/04/10 08:12:53;;;;;;;4.32;3.05;;;;;;;15.62;41.61;99981.91;5029272;28;20348;-68
2023/04/10 08:15:18;;;;;;;4.50;2.90;;;;;;;15.48;40.49;99980.03;5032525;28;20040;-67
2023/04/10 08:17:44;;;;;;;3.85;2.70;;;;;;;15.62;41.33;99979.22;5030638;28;20049;-68
2023/04/10 08:20:10;;;;;;;3.72;3.20;;;;;;;15.14;41.17;99979.81;5034062;28;20365;-65
2023/04/10 08:22:36;;;;;;;4.13;3.15;;;;;;;15.20;41.69;99981.75;5032702;28;20029;-68
2023/04/10 08:25:02;;;;;;;3.05;2.72;;;;;;;15.07;41.18;99973.56;5033923;28;20350;-67
2023/04/10 08:27:29;;;;;;;4.40;3.08;;;;;;;14.46;43.32;99972.88;5030979;28;20039;-67
2023/04/10 08:29:54;;;;;;;4.10;3.00;;;;;;;14.26;43.40;99975.19;5031233;28;20438;-68
2023/04/10 08:32:20;;;;;;;4.75;2.50;;;;;;;14.41;44.04;99970.72;5031649;28;20513;-65
2023/04/10 08:34:45;;;;;;;3.60;2.70;;;;;;;14.50;42.98;99968.84;5033282;28;20041;-68
2023/04/10 08:37:14;;;;;;;2.80;2.50;;;;;;;14.16;44.62;99966.63;5031881;28;20026;-65
2023/04/10 08:39:40;;;;;;;4.75;2.53;;;;;;;14.06;46.38;99967.72;5032269;28;20092;-65
2023/04/10 08:42:06;;;;;;;3.47;2.70;;;;;;;14.17;46.60;99968.28;5032076;28;20398;-65
2023/04/10 08:44:32;;;;;;;4.35;2.38;;;;;;;14.16;46.57;99975.44;5026364;28;20388;-67
2023/04/10 08:46:58;;;;;;;3.75;2.42;;;;;;;14.00;46.33;99968.44;5030845;28;20406;-66
2023/04/10 08:49:38;;;;;;;4.20;2.63;;;;;;;13.66;46.42;99965.34;5030766;28;20045;-68
2023/04/10 08:52:07;;;;;;;3.13;2.50;;;;;;;13.75;47.57;99958.97;5030333;28;20056;-67
2023/04/10 08:54:36;;;;;;;2.50;2.30;;;;;;;13.90;45.27;99957.19;5030359;28;20208;-65
2023/04/10 08:57:03;;;;;;;7.47;2.60;;;;;;;14.01;45.03;99950.63;5031255;28;20055;-64
2023/04/10 08:59:30;;;;;;;2.97;2.25;;;;;;;14.16;43.90;99948.00;5031416;28;20093;-65
2023/04/10 09:01:56;;;;;;;3.83;2.33;;;;;;;14.21;43.80;99948.28;5031812;28;20030;-68
2023/04/10 09:04:23;;;;;;;4.85;2.97;;;;;;;14.45;44.22;99955.25;5029291;28;20045;-68
2023/04/10 09:06:48;;;;;;;3.55;2.53;;;;;;;14.61;44.17;99961.25;5030628;28;20319;-68
2023/04/10 09:09:14;;;;;;;5.47;3.25;;;;;;;14.63;43.68;99953.91;5029983;28;20152;-67
2023/04/10 09:11:51;;;;;;;3.60;2.30;;;;;;;14.35;44.49;99948.31;5032301;28;20029;-67
2023/04/10 09:14:23;;;;;;;2.78;2.05;;;;;;;14.53;45.47;99947.16;5025083;28;20037;-68
2023/04/10 09:16:50;;;;;;;3.28;2.50;;;;;;;14.64;44.03;99952.91;5034622;28;20259;-68
2023/04/10 09:19:29;;;;;;;3.80;2.50;;;;;;;13.89;45.29;99947.56;5029598;28;20033;-68
2023/04/10 09:21:55;;;;;;;4.15;2.25;;;;;;;13.97;46.69;99944.00;5029323;28;20034;-68
2023/04/10 09:24:25;;;;;;;4.25;2.53;;;;;;;14.00;45.91;99940.97;5031009;28;20056;-67
2023/04/10 09:26:51;;;;;;;3.08;2.63;;;;;;;14.14;46.37;99945.50;5031132;28;20136;-65
2023/04/10 09:29:17;;;;;;;3.70;2.30;;;;;;;14.19;44.39;99937.81;5029900;28;20382;-68
2023/04/10 09:31:43;;;;;;;2.85;2.38;;;;;;;14.17;46.75;99947.81;5031296;28;20080;-68
2023/04/10 09:34:22;;;;;;;4.20;2.20;;;;;;;14.16;47.45;99940.84;5030269;28;20037;-65
2023/04/10 09:36:57;;;;;;;3.75;2.60;;;;;;;14.09;46.26;99941.72;5031825;28;20559;-64
2023/04/10 09:39:44;;;;;;;3.55;2.75;;;;;;;14.03;46.95;99938.78;5029815;28;20052;-65
2023/04/10 09:42:13;;;;;;;2.22;2.03;;;;;;;13.85;48.09;99942.75;5030403;28;20037;-67
2023/04/10 09:44:40;;;;;;;3.22;2.58;;;;;;;13.62;49.58;99938.28;5028161;28;20107;-67
2023/04/10 09:47:17;;;;;;;3.42;2.50;;;;;;;13.91;48.01;99942.88;5032029;28;20037;-63
2023/04/10 09:49:51;;;;;;;3.53;2.65;;;;;;;13.93;47.42;99929.38;5027769;28;20409;-64
2023/04/10 09:52:17;;;;;;;;;;;;;;;14.12;46.79;99933.38;5028595;28;20323;-63
2023/04/10 09:54:42;;;;;;;3.88;2.28;;;;;;;14.21;46.23;99937.63;5030964;28;19925;-66
2023/04/10 09:57:09;;;;;;;2.53;2.30;;;;;;;14.26;47.93;99935.25;5028797;28;20033;-64
2023/04/10 09:59:37;;;;;;;4.00;2.63;;;;;;;13.91;47.60;99932.22;5031343;28;20046;-67
2023/04/10 10:02:03;;;;;;;4.65;2.60;;;;;;;13.87;50.55;99932.75;5028811;28;20033;-67
2023/04/10 10:04:29;;;;;;;3.10;2.28;;;;;;;13.94;51.42;99931.88;5031256;28;20077;-67
2023/04/10 10:06:55;;;;;;;4.28;2.80;;;;;;;13.76;48.77;99931.34;5028551;28;20281;-65
2023/04/10 10:09:20;;;;;;;3.80;2.70;;;;;;;13.56;48.45;99915.03;5028340;28;20033;-66
2023/04/10 10:11:49;;;;;;;4.85;3.25;;;;;;;13.63;50.90;99925.78;5029675;28;20037;-64
2023/04/10 10:14:19;;;;;;;4.95;2.70;;;;;;;13.62;53.38;99929.47;5027980;28;20358;-64
2023/04/10 10:16:55;;;;;;;4.05;2.78;;;;;;;13.61;52.14;99928.63;5028296;28;20045;-63
2023/04/10 10:19:23;;;;;;;5.22;3.22;;;;;;;13.75;53.15;99927.03;5028720;28;20029;-66
2023/04/10 10:21:50;;;;;;;5.70;3.60;;;;;;;13.74;57.20;99931.53;5031111;28;20100;-64
2023/04/10 10:24:19;;;;;;;4.43;3.10;;;;;;;13.62;58.36;99930.28;5029116;28;20343;-66
2023/04/10 10:26:46;;;;;;;4.63;2.88;;;;;;;13.56;59.25;99924.84;5029274;28;20071;-66
2023/04/10 10:29:16;;;;;;;4.38;3.42;;;;;;;13.72;58.90;99930.06;5028662;28;20041;-64
2023/04/10 10:31:42;;;;;;;4.30;2.90;;;;;;;13.53;57.89;99927.88;5027913;28;20033;-66
2023/04/10 10:34:08;;;;;;;7.00;4.03;;;;;;;13.26;61.92;99927.31;5028930;28;20037;-63
2023/04/10 10:36:39;;;;;;;4.78;3.75;;;;;;;13.63;63.42;99931.94;5035367;28;20044;-64
2023/04/10 10:39:46;;;;;;;3.55;2.92;;;;;;;13.58;61.63;99923.66;5036270;28;20113;-63
2023/04/10 10:42:40;;;;;;;3.80;2.97;;;;;;;13.76;61.04;99915.38;5034653;28;20114;-63
2023/04/10 10:45:08;;;;;;;4.20;2.88;;;;;;;13.66;59.24;99922.78;5037684;28;20044;-65
2023/04/10 10:47:41;;;;;;;4.93;3.20;;;;;;;13.73;57.88;99910.41;5037580;28;20079;-64
2023/04/10 10:50:06;;;;;;;3.92;3.45;;;;;;;13.83;59.81;99910.19;5035817;28;20075;-66
2023/04/10 10:52:39;;;;;;;6.38;3.78;;;;;;;13.79;60.30;99906.22;5036984;28;20335;-67
2023/04/10 10:55:43;;;;;;;5.25;3.72;;;;;;;13.84;59.16;99899.34;5036838;28;20057;-64
2023/04/10 10:58:10;;;;;;;5.65;2.75;;;;;;;13.84;58.38;99895.84;5035424;28;20939;-66
2023/04/10 11:00:50;;;;;;;4.43;3.47;;;;;;;13.68;58.26;99905.63;5036655;28;20033;-63
2023/04/10 11:03:16;;;;;;;5.75;3.50;;;;;;;13.63;57.76;99907.16;5036758;28;20045;-66
2023/04/10 11:06:01;;;;;;;3.50;3.20;;;;;;;13.60;57.43;99900.38;5041300;28;20040;-64
2023/04/10 11:08:38;;;;;;;4.13;3.10;;;;;;;12.99;59.90;99907.34;5043520;28;20030;-66
2023/04/10 11:11:07;;;;;;;4.82;3.72;;;;;;;13.42;58.20;99900.63;5037305;28;20056;-64
2023/04/10 11:13:35;;;;;;;4.68;3.58;;;;;;;13.55;55.69;99894.75;5036842;28;20037;-67
2023/04/10 11:16:03;;;;;;;5.97;3.55;;;;;;;13.70;58.17;99908.13;5036942;28;20347;-63
2023/04/10 11:18:44;;;;;;;5.65;3.83;;;;;;;13.63;59.41;99901.84;5037084;28;20034;-63
2023/04/10 11:21:18;;;;;;;5.18;3.90;;;;;;;13.50;59.10;99897.09;5036478;28;20060;-66
2023/04/10 11:23:49;;;;;;;5.65;3.50;;;;;;;13.79;55.96;99898.22;5036726;28;20064;-67
2023/04/10 11:26:33;;;;;;;5.05;3.38;;;;;;;13.85;58.77;99901.00;5036184;28;20207;-64
2023/04/10 11:29:13;;;;;;;5.40;3.50;;;;;;;13.40;57.97;99905.28;5036307;28;20088;-67